createdAt,value
2019-03-05T00:00:46.497Z,8.92
2019-03-05T00:03:15.966Z,8.88
2019-03-05T00:05:43.907Z,8.79
2019-03-05T00:08:11.403Z,8.74
2019-03-05T00:10:39.060Z,8.72
2019-03-05T00:13:11.518Z,8.70
2019-03-05T00:15:39.148Z,8.71
2019-03-05T00:18:06.834Z,8.69
2019-03-05T00:20:34.526Z,8.66
2019-03-05T00:23:03.422Z,8.65
2019-03-05T00:25:32.714Z,8.63
2019-03-05T00:28:05.810Z,8.62
2019-03-05T00:30:53.878Z,8.62
2019-03-05T00:34:01.544Z,8.62
2019-03-05T00:36:58.586Z,8.65
2019-03-05T00:40:01.574Z,8.64
2019-03-05T00:43:12.012Z,8.65
2019-03-05T00:46:34.660Z,8.64
2019-03-05T00:50:00.700Z,8.61
2019-03-05T00:53:02.111Z,8.60
2019-03-05T00:56:10.475Z,8.59
2019-03-05T00:59:18.427Z,8.60
2019-03-05T01:02:45.277Z,8.62
2019-03-05T01:05:35.459Z,8.62
2019-03-05T01:08:03.714Z,8.64
2019-03-05T01:10:31.620Z,8.67
2019-03-05T01:13:00.450Z,8.72
2019-03-05T01:15:29.329Z,8.75
2019-03-05T01:17:57.258Z,8.79
2019-03-05T01:20:27.337Z,8.81
2019-03-05T01:22:59.512Z,8.82
2019-03-05T01:25:31.259Z,8.83
2019-03-05T01:27:59.312Z,8.84
2019-03-05T01:30:36.951Z,8.85
2019-03-05T01:33:09.628Z,8.86
2019-03-05T01:35:48.493Z,8.86
2019-03-05T01:38:22.234Z,8.87
2019-03-05T01:41:01.560Z,8.89
2019-03-05T01:43:37.111Z,8.90
2019-03-05T01:46:08.101Z,8.90
2019-03-05T01:48:36.598Z,8.91
2019-03-05T01:51:10.348Z,8.93
2019-03-05T01:53:40.603Z,8.93
2019-03-05T01:56:14.313Z,8.91
2019-03-05T01:59:04.840Z,8.88
2019-03-05T02:01:40.741Z,8.83
2019-03-05T02:04:33.257Z,8.79
2019-03-05T02:07:13.317Z,8.79
2019-03-05T02:09:47.072Z,8.78
2019-03-05T02:12:17.882Z,8.77
2019-03-05T02:14:45.312Z,8.75
2019-03-05T02:17:13.691Z,8.75
2019-03-05T02:19:49.226Z,8.75
2019-03-05T02:22:40.180Z,8.73
2019-03-05T02:25:39.141Z,8.74
2019-03-05T02:29:03.940Z,8.72
2019-03-05T02:32:46.986Z,8.75
2019-03-05T02:35:44.245Z,8.73
2019-03-05T02:39:38.611Z,8.72
2019-03-05T02:42:43.566Z,8.68
2019-03-05T02:46:28.774Z,8.69
2019-03-05T02:50:14.533Z,8.71
2019-03-05T02:52:54.526Z,8.71
2019-03-05T02:56:07.936Z,8.68
2019-03-05T02:58:34.315Z,8.67
2019-03-05T03:01:13.053Z,8.64
2019-03-05T03:03:43.937Z,8.62
2019-03-05T03:06:15.428Z,8.65
2019-03-05T03:08:43.747Z,8.64
2019-03-05T03:11:11.369Z,8.66
2019-03-05T03:13:39.042Z,8.65
2019-03-05T03:16:06.724Z,8.65
2019-03-05T03:18:34.221Z,8.65
2019-03-05T03:21:02.017Z,8.63
2019-03-05T03:23:30.680Z,8.60
2019-03-05T03:25:58.300Z,8.60
2019-03-05T03:28:25.999Z,8.60
2019-03-05T03:30:53.887Z,8.61
2019-03-05T03:33:21.910Z,8.59
2019-03-05T03:35:53.107Z,8.57
2019-03-05T03:38:20.918Z,8.59
2019-03-05T03:40:49.729Z,8.60
2019-03-05T03:43:17.645Z,8.64
2019-03-05T03:45:45.616Z,8.64
2019-03-05T03:48:13.464Z,8.61
2019-03-05T03:50:41.315Z,8.63
2019-03-05T03:53:09.068Z,8.62
2019-03-05T05:54:01.475Z,8.62
2019-03-05T05:56:29.825Z,8.66
2019-03-05T05:58:58.995Z,8.68
2019-03-05T06:01:28.368Z,8.69
2019-03-05T06:03:56.519Z,8.73
2019-03-05T06:06:24.575Z,8.75
2019-03-05T06:08:53.110Z,8.79
2019-03-05T06:11:21.199Z,8.82
2019-03-05T06:13:49.282Z,8.85
2019-03-05T06:16:17.324Z,8.87
2019-03-05T06:18:46.621Z,8.89
2019-03-05T06:21:14.675Z,8.91
2019-03-05T06:23:42.748Z,8.91
2019-03-05T06:26:10.833Z,8.93
2019-03-05T06:28:38.909Z,8.96
2019-03-05T06:31:07.069Z,8.95
2019-03-05T06:33:36.353Z,8.98
2019-03-05T06:36:05.713Z,8.98
2019-03-05T06:38:35.493Z,9.02
2019-03-05T06:41:04.782Z,9.03
2019-03-05T06:43:38.892Z,9.05
2019-03-05T06:46:06.950Z,9.07
2019-03-05T06:48:35.013Z,9.03
2019-03-05T06:51:03.128Z,9.01
2019-03-05T06:53:31.229Z,9.03
2019-03-05T06:55:59.341Z,9.06
2019-03-05T06:58:27.431Z,9.09
2019-03-05T07:00:57.113Z,9.11
2019-03-05T07:03:25.136Z,9.11
2019-03-05T07:06:48.260Z,9.13
2019-03-05T07:10:21.718Z,9.11
2019-03-05T07:13:03.471Z,9.06
2019-03-05T07:16:36.989Z,9.02
2019-03-05T07:19:36.964Z,9.02
2019-03-05T07:22:56.159Z,8.99
2019-03-05T07:25:25.184Z,8.99
2019-03-05T07:27:57.051Z,9.01
2019-03-05T07:30:26.187Z,9.02
2019-03-05T07:32:56.421Z,9.05
2019-03-05T07:35:25.365Z,9.07
2019-03-05T07:37:53.656Z,9.07
2019-03-05T07:40:21.715Z,9.08
2019-03-05T07:42:51.072Z,9.10
2019-03-05T07:45:19.142Z,9.17
2019-03-05T07:47:47.211Z,9.20
2019-03-05T07:50:15.256Z,9.26
2019-03-05T07:52:43.417Z,9.30
2019-03-05T07:55:14.533Z,9.35
2019-03-05T07:57:42.752Z,9.38
2019-03-05T08:00:21.306Z,9.41
2019-03-05T08:02:49.380Z,9.44
2019-03-05T08:05:17.752Z,9.48
2019-03-05T08:07:46.269Z,9.55
2019-03-05T08:10:30.092Z,9.58
2019-03-05T08:13:23.259Z,9.62
2019-03-05T08:16:08.133Z,9.67
2019-03-05T08:18:36.173Z,9.73
2019-03-05T08:21:04.967Z,9.78
2019-03-05T08:23:34.577Z,9.81
2019-03-05T08:26:02.615Z,9.83
2019-03-05T08:28:30.715Z,9.88
2019-03-05T08:30:58.736Z,9.95
2019-03-05T08:33:28.877Z,10.04
2019-03-05T08:35:56.927Z,10.13
2019-03-05T08:38:25.125Z,10.20
2019-03-05T08:40:55.960Z,10.24
2019-03-05T08:43:24.178Z,10.25
2019-03-05T08:45:52.523Z,10.25
2019-03-05T08:48:20.638Z,10.26
2019-03-05T08:50:48.691Z,10.27
2019-03-05T08:53:16.777Z,10.29
2019-03-05T08:55:44.817Z,10.29
2019-03-05T08:58:12.962Z,10.32
2019-03-05T09:00:41.000Z,10.37
2019-03-05T09:03:09.215Z,10.39
2019-03-05T09:05:37.396Z,10.41
2019-03-05T09:08:05.551Z,10.42
2019-03-05T09:10:34.375Z,10.46
2019-03-05T09:13:04.222Z,10.49
2019-03-05T09:15:32.289Z,10.49
2019-03-05T09:18:00.701Z,10.52
2019-03-05T09:20:30.484Z,10.52
2019-03-05T09:22:58.506Z,10.51
2019-03-05T09:25:26.559Z,10.49
2019-03-05T09:27:55.854Z,10.48
2019-03-05T09:30:24.049Z,10.48
2019-03-05T09:32:52.186Z,10.51
2019-03-05T09:35:20.260Z,10.55
2019-03-05T09:37:48.284Z,10.59
2019-03-05T09:40:19.004Z,10.62
2019-03-05T09:42:47.259Z,10.68
2019-03-05T09:45:16.709Z,10.73
2019-03-05T09:47:44.785Z,10.76
2019-03-05T09:50:14.910Z,10.80
2019-03-05T09:52:54.399Z,10.83
2019-03-05T09:55:18.105Z,10.87
2019-03-05T09:57:48.419Z,10.89
2019-03-05T10:00:18.265Z,10.90
2019-03-05T10:02:46.440Z,10.96
2019-03-05T10:05:15.354Z,10.97
2019-03-05T10:07:44.007Z,10.98
2019-03-05T10:10:16.061Z,10.94
2019-03-05T10:12:44.251Z,10.92
2019-03-05T10:15:15.932Z,10.94
2019-03-05T10:17:43.981Z,10.98
2019-03-05T10:20:15.635Z,11.01
2019-03-05T10:22:44.833Z,11.04
2019-03-05T10:25:15.817Z,11.07
2019-03-05T10:27:44.161Z,11.14
2019-03-05T10:30:25.412Z,11.16
2019-03-05T10:32:55.123Z,11.10
2019-03-05T10:35:25.418Z,11.03
2019-03-05T10:37:56.053Z,11.01
2019-03-05T10:40:27.447Z,11.00
2019-03-05T10:42:55.716Z,11.04
2019-03-05T10:45:24.921Z,11.06
2019-03-05T10:47:53.367Z,11.07
2019-03-05T10:50:24.392Z,11.07
2019-03-05T10:52:52.482Z,11.08
2019-03-05T10:55:26.278Z,11.08
2019-03-05T10:57:50.786Z,11.16
2019-03-05T11:00:28.598Z,11.21
2019-03-05T11:02:57.042Z,11.29
2019-03-05T11:05:27.925Z,11.37
2019-03-05T11:07:57.469Z,11.43
2019-03-05T11:10:28.145Z,11.46
2019-03-05T11:12:56.646Z,11.51
2019-03-05T11:15:27.642Z,11.53
2019-03-05T11:17:56.289Z,11.54
2019-03-05T11:20:25.043Z,11.53
2019-03-05T11:22:53.212Z,11.55
2019-03-05T11:25:22.796Z,11.57
2019-03-05T11:27:50.868Z,11.64
2019-03-05T11:30:35.369Z,11.72
2019-03-05T11:32:56.087Z,11.82
2019-03-05T11:35:26.845Z,11.93
2019-03-05T11:37:54.971Z,12.07
2019-03-05T11:40:23.295Z,12.21
2019-03-05T11:42:53.370Z,12.32
2019-03-05T11:45:24.274Z,12.38
2019-03-05T11:47:52.380Z,12.41
2019-03-05T11:50:21.023Z,12.41
2019-03-05T11:52:49.331Z,12.46
2019-03-05T11:55:19.704Z,12.47
2019-03-05T11:57:47.766Z,12.46
2019-03-05T12:00:23.707Z,12.47
2019-03-05T12:02:52.889Z,12.46
2019-03-05T12:05:22.072Z,12.42
2019-03-05T12:07:50.313Z,12.39
2019-03-05T12:10:19.306Z,12.43
2019-03-05T12:12:52.776Z,12.41
2019-03-05T12:15:21.009Z,12.41
2019-03-05T12:17:49.486Z,12.42
2019-03-05T12:20:17.548Z,12.43
2019-03-05T12:22:45.689Z,12.43
2019-03-05T12:25:15.413Z,12.45
2019-03-05T12:27:43.451Z,12.43
2019-03-05T12:30:18.268Z,12.43
2019-03-05T12:32:46.329Z,12.42
2019-03-05T12:35:14.507Z,12.41
2019-03-05T12:38:00.100Z,12.43
2019-03-05T12:40:28.380Z,12.43
2019-03-05T12:42:57.590Z,12.44
2019-03-05T12:45:25.651Z,12.48
2019-03-05T12:47:53.713Z,12.48
2019-03-05T12:50:22.200Z,12.48
2019-03-05T12:52:50.687Z,12.48
2019-03-05T12:55:20.565Z,12.47
2019-03-05T12:57:50.457Z,12.46
2019-03-05T13:00:20.405Z,12.48
2019-03-05T13:02:49.173Z,12.48
2019-03-05T13:05:17.869Z,12.47
2019-03-05T13:07:46.038Z,12.47
2019-03-05T13:10:19.800Z,12.49
2019-03-05T13:12:47.836Z,12.42
2019-03-05T13:15:22.718Z,12.33
2019-03-05T13:17:51.549Z,12.30
2019-03-05T13:20:22.498Z,12.28
2019-03-05T13:22:52.236Z,12.24
2019-03-05T13:25:24.219Z,12.21
2019-03-05T13:27:51.374Z,12.24
2019-03-05T13:30:22.099Z,12.30
2019-03-05T13:32:53.970Z,12.38
2019-03-05T13:35:25.329Z,12.43
2019-03-05T13:37:52.348Z,12.52
2019-03-05T13:40:25.257Z,12.59
2019-03-05T13:42:53.779Z,12.68
2019-03-05T13:45:23.880Z,12.74
2019-03-05T13:48:03.407Z,12.76
2019-03-05T13:51:19.607Z,12.81
2019-03-05T13:54:25.671Z,12.89
2019-03-05T13:58:16.844Z,12.93
2019-03-05T14:00:44.929Z,12.98
2019-03-05T14:03:43.745Z,13.04
2019-03-05T14:07:00.854Z,13.08
2019-03-05T14:09:27.476Z,13.13
2019-03-05T14:11:55.549Z,13.19
2019-03-05T14:14:28.868Z,13.25
2019-03-05T14:17:17.290Z,13.33
2019-03-05T14:19:45.528Z,13.42
2019-03-05T14:22:15.321Z,13.44
2019-03-05T14:24:43.330Z,13.47
2019-03-05T14:27:11.387Z,13.49
2019-03-05T14:29:39.515Z,13.52
2019-03-05T14:32:08.317Z,13.54
2019-03-05T14:34:36.515Z,13.55
2019-03-05T14:37:04.996Z,13.58
2019-03-05T14:39:34.687Z,13.57
2019-03-05T14:42:06.271Z,13.56
2019-03-05T14:44:39.785Z,13.53
2019-03-05T14:47:05.630Z,13.55
2019-03-05T14:49:34.414Z,13.53
2019-03-05T14:52:03.337Z,13.53
2019-03-05T14:54:31.470Z,13.56
2019-03-05T14:57:00.670Z,13.59
2019-03-05T14:59:29.118Z,13.60
2019-03-05T15:01:58.644Z,13.63
2019-03-05T15:04:26.700Z,13.69
2019-03-05T15:06:54.789Z,13.69
2019-03-05T15:09:22.851Z,13.71
2019-03-05T15:11:50.911Z,13.71
2019-03-05T15:14:19.484Z,13.73
2019-03-05T15:16:47.672Z,13.73
2019-03-05T15:19:21.313Z,13.74
2019-03-05T15:21:46.126Z,13.74
2019-03-05T15:24:14.313Z,13.73
2019-03-05T15:26:42.539Z,13.71
2019-03-05T15:29:10.636Z,13.68
2019-03-05T15:31:38.795Z,13.62
2019-03-05T15:34:07.617Z,13.54
2019-03-05T15:36:35.839Z,13.46
2019-03-05T15:39:05.333Z,13.37
2019-03-05T15:41:35.388Z,13.32
2019-03-05T15:44:03.777Z,13.24
2019-03-05T15:46:32.579Z,13.18
2019-03-05T15:49:01.041Z,13.13
2019-03-05T15:51:29.504Z,13.07
2019-03-05T15:53:58.410Z,13.01
2019-03-05T15:56:26.645Z,12.93
2019-03-05T15:58:54.953Z,12.86
2019-03-05T16:01:23.116Z,12.79
2019-03-05T16:03:52.557Z,12.73
2019-03-05T16:06:20.717Z,12.68
2019-03-05T16:08:49.110Z,12.63
2019-03-05T16:11:17.295Z,12.56
2019-03-05T16:13:47.430Z,12.51
2019-03-05T16:16:18.343Z,12.47
2019-03-05T16:18:45.743Z,12.43
2019-03-05T16:21:13.792Z,12.41
2019-03-05T16:23:41.872Z,12.39
2019-03-05T16:26:10.026Z,12.34
2019-03-05T16:28:39.302Z,12.32
2019-03-05T16:31:27.115Z,12.29
2019-03-05T16:34:02.017Z,12.25
2019-03-05T16:36:40.786Z,12.21
2019-03-05T16:39:42.233Z,12.17
2019-03-05T16:42:39.190Z,12.12
2019-03-05T16:45:23.480Z,12.02
2019-03-05T16:48:23.540Z,11.91
2019-03-05T16:51:09.214Z,11.83
2019-03-05T16:54:03.003Z,11.74
2019-03-05T16:56:46.956Z,11.68
2019-03-05T16:59:49.743Z,11.68
2019-03-05T17:02:40.737Z,11.65
2019-03-05T17:05:25.818Z,11.59
2019-03-05T17:08:19.089Z,11.55
2019-03-05T17:11:13.053Z,11.52
2019-03-05T17:13:41.428Z,11.49
2019-03-05T17:16:09.698Z,11.48
2019-03-05T17:18:38.616Z,11.45
2019-03-05T17:21:06.793Z,11.45
2019-03-05T17:23:37.606Z,11.43
2019-03-05T17:26:06.098Z,11.43
2019-03-05T17:28:35.273Z,11.42
2019-03-05T17:31:03.553Z,11.41
2019-03-05T17:33:33.015Z,11.40
2019-03-05T17:36:02.325Z,11.40
2019-03-05T17:38:30.896Z,11.37
2019-03-05T17:40:59.121Z,11.38
2019-03-05T17:43:27.249Z,11.39
2019-03-05T17:45:55.881Z,11.38
2019-03-05T17:48:24.467Z,11.38
2019-03-05T17:50:53.814Z,11.37
2019-03-05T17:53:23.136Z,11.36
2019-03-05T17:55:51.656Z,11.35
2019-03-05T17:58:20.106Z,11.31
2019-03-05T18:00:48.685Z,11.21
2019-03-05T18:03:16.988Z,11.13
2019-03-05T18:05:45.170Z,11.04
2019-03-05T18:08:13.635Z,10.99
2019-03-05T18:10:41.760Z,10.98
2019-03-05T18:13:10.065Z,10.99
2019-03-05T18:15:39.339Z,11.01
2019-03-05T18:18:07.428Z,11.03
2019-03-05T18:20:35.908Z,11.04
2019-03-05T18:23:04.130Z,11.04
2019-03-05T18:25:35.232Z,11.05
2019-03-05T18:28:03.595Z,11.05
2019-03-05T18:30:31.677Z,11.06
2019-03-05T18:33:00.007Z,11.06
2019-03-05T18:35:28.508Z,11.06
2019-03-05T18:37:56.689Z,11.06
2019-03-05T18:40:25.058Z,11.04
2019-03-05T18:42:53.240Z,11.03
2019-03-05T18:45:23.509Z,11.02
2019-03-05T18:47:51.633Z,11.01
2019-03-05T18:50:20.145Z,11.00
2019-03-05T18:52:49.643Z,10.99
2019-03-05T18:55:18.874Z,11.00
2019-03-05T18:57:47.107Z,10.99
2019-03-05T19:00:18.696Z,10.95
2019-03-05T19:02:46.799Z,10.91
2019-03-05T19:05:16.122Z,10.89
2019-03-05T19:07:46.858Z,10.86
2019-03-05T19:10:16.826Z,10.83
2019-03-05T19:12:44.864Z,10.79
2019-03-05T19:15:17.136Z,10.78
2019-03-05T19:17:47.093Z,10.78
2019-03-05T19:20:18.313Z,10.75
2019-03-05T19:22:47.351Z,10.71
2019-03-05T19:25:18.800Z,10.70
2019-03-05T19:27:48.652Z,10.68
2019-03-05T19:30:20.666Z,10.67
2019-03-05T19:32:50.264Z,10.65
2019-03-05T19:35:18.562Z,10.64
2019-03-05T19:37:47.658Z,10.63
2019-03-05T19:40:19.265Z,10.61
2019-03-05T19:42:47.721Z,10.59
2019-03-05T19:45:15.944Z,10.56
2019-03-05T19:47:44.337Z,10.54
2019-03-05T19:50:14.948Z,10.52
2019-03-05T19:52:43.413Z,10.52
2019-03-05T19:55:14.323Z,10.51
2019-03-05T19:57:42.375Z,10.50
2019-03-05T20:00:25.758Z,10.52
2019-03-05T20:02:54.332Z,10.53
2019-03-05T20:05:22.828Z,10.53
2019-03-05T20:07:50.794Z,10.54
2019-03-05T20:10:19.952Z,10.54
2019-03-05T20:12:49.113Z,10.54
2019-03-05T20:15:17.206Z,10.55
2019-03-05T20:17:45.907Z,10.55
2019-03-05T20:20:15.630Z,10.56
2019-03-05T20:22:44.225Z,10.57
2019-03-05T20:25:15.412Z,10.55
2019-03-05T20:27:43.562Z,10.54
2019-03-05T20:30:16.118Z,10.53
2019-03-05T20:32:46.310Z,10.52
2019-03-05T20:35:15.035Z,10.50
2019-03-05T20:37:43.753Z,10.48
2019-03-05T20:40:14.335Z,10.45
2019-03-05T20:42:43.091Z,10.43
2019-03-05T20:45:15.751Z,10.41
2019-03-05T20:47:43.919Z,10.38
2019-03-05T20:50:12.823Z,10.38
2019-03-05T20:52:40.994Z,10.37
2019-03-05T20:55:12.221Z,10.37
2019-03-05T20:57:40.522Z,10.37
2019-03-05T21:00:21.963Z,10.35
2019-03-05T21:02:51.545Z,10.35
2019-03-05T21:05:21.009Z,10.33
2019-03-05T21:07:49.051Z,10.32
2019-03-05T21:10:17.325Z,10.30
2019-03-05T21:12:47.492Z,10.28
2019-03-05T21:15:15.905Z,10.27
2019-03-05T21:17:45.343Z,10.26
2019-03-05T21:20:14.062Z,10.23
2019-03-05T21:22:43.484Z,10.22
2019-03-05T21:25:12.420Z,10.21
2019-03-05T21:27:41.449Z,10.19
2019-03-05T21:30:13.798Z,10.18
2019-03-05T21:32:42.389Z,10.18
2019-03-05T21:35:10.935Z,10.18
2019-03-05T21:37:40.948Z,10.14
2019-03-05T21:40:16.386Z,10.10
2019-03-05T21:42:44.900Z,10.11
2019-03-05T21:45:17.169Z,10.10
2019-03-05T21:47:45.459Z,10.09
2019-03-05T21:50:14.481Z,10.07
2019-03-05T21:52:42.548Z,10.04
2019-03-05T21:55:13.107Z,10.03
2019-03-05T21:57:41.640Z,10.00
2019-03-05T22:00:14.373Z,9.99
2019-03-05T22:02:44.326Z,9.98
2019-03-05T22:05:14.138Z,9.97
2019-03-05T22:07:42.393Z,9.98
2019-03-05T22:10:14.155Z,9.96
2019-03-05T22:12:43.402Z,9.94
2019-03-05T22:15:13.962Z,9.93
2019-03-05T22:17:42.077Z,9.91
2019-03-05T22:20:13.648Z,9.93
2019-03-05T22:22:41.697Z,9.93
2019-03-05T22:25:12.406Z,9.92
2019-03-05T22:27:40.861Z,9.92
2019-03-05T22:30:16.356Z,9.92
2019-03-05T22:32:44.695Z,9.91
2019-03-05T22:35:15.086Z,9.92
2019-03-05T22:37:43.237Z,9.91
2019-03-05T22:40:11.900Z,9.93
2019-03-05T22:42:40.095Z,9.91
2019-03-05T22:45:12.734Z,9.91
2019-03-05T22:47:40.807Z,9.91
2019-03-05T22:50:09.593Z,9.90
2019-03-05T22:52:38.967Z,9.90
2019-03-05T22:55:07.896Z,9.88
2019-03-05T22:57:37.128Z,9.86
2019-03-05T23:00:11.744Z,9.85
2019-03-05T23:02:40.459Z,9.84
2019-03-05T23:05:09.620Z,9.82
2019-03-05T23:07:39.957Z,9.82
2019-03-05T23:10:11.247Z,9.81
2019-03-05T23:12:39.642Z,9.81
2019-03-05T23:15:09.053Z,9.80
2019-03-05T23:17:37.974Z,9.80
2019-03-05T23:20:07.224Z,9.78
2019-03-05T23:22:35.514Z,9.78
2019-03-05T23:25:04.394Z,9.77
2019-03-05T23:27:35.839Z,9.76
2019-03-05T23:30:07.992Z,9.75
2019-03-05T23:32:37.570Z,9.71
2019-03-05T23:35:07.431Z,9.71
2019-03-05T23:37:36.957Z,9.71
2019-03-05T23:40:05.266Z,9.70
2019-03-05T23:42:33.638Z,9.68
2019-03-05T23:45:01.688Z,9.66
2019-03-05T23:47:30.109Z,9.66
2019-03-05T23:49:58.165Z,9.63
2019-03-05T23:52:26.351Z,9.62
2019-03-05T23:54:54.754Z,9.62
2019-03-05T23:57:23.186Z,9.60
2019-03-05T23:59:52.768Z,9.56
